Terminal Aerodrome Forecast
Issued by NWS

Home | Current Version | Previous Version | Text Only | Print | Product List | Glossary On
Versions: 1 2 3 4 5 6 7 8 9 10 11 12 13 14 15 16 17
000
FTUS43 KEAX 250500
TAFMKC
TAF
KMKC 250520Z 2506/2606 19007KT P6SM SKC
     FM251000 19009KT P6SM SKC WS010/21035KT
     FM251500 18015G25KT P6SM SCT250
     FM252300 18015KT P6SM SCT200=

USA.gov is the U.S. government's official web portal to all federal, state and local government web resources and services.